createdAt,value
2023-05-12T00:00:11.994Z,47.61
2023-05-12T00:03:08.579Z,47.58
2023-05-12T00:05:37.912Z,47.79
2023-05-12T00:08:06.652Z,47.74
2023-05-12T00:10:42.618Z,47.85
2023-05-12T00:13:11.373Z,47.95
2023-05-12T00:15:39.814Z,48.07
2023-05-12T00:18:08.107Z,48.15
2023-05-12T00:20:36.472Z,48.12
2023-05-12T00:23:04.723Z,48.20
2023-05-12T00:25:33.488Z,48.25
2023-05-12T00:28:01.656Z,48.17
2023-05-12T00:30:30.073Z,48.32
2023-05-12T00:32:59.677Z,48.45
2023-05-12T00:35:28.023Z,48.42
2023-05-12T00:37:56.498Z,48.62
2023-05-12T00:40:24.766Z,48.67
2023-05-12T00:42:53.058Z,48.74
2023-05-12T00:45:22.127Z,48.97
2023-05-12T00:47:53.667Z,49.02
2023-05-12T00:50:22.742Z,48.70
2023-05-12T00:52:52.336Z,48.98
2023-05-12T00:55:20.831Z,49.12
2023-05-12T00:57:50.138Z,49.09
2023-05-12T01:00:18.930Z,49.21
2023-05-12T01:02:47.846Z,49.18
2023-05-12T01:05:16.263Z,49.43
2023-05-12T01:07:49.255Z,49.27
2023-05-12T01:10:19.837Z,49.28
2023-05-12T01:12:49.122Z,49.32
2023-05-12T01:15:58.652Z,49.06
2023-05-12T01:18:27.890Z,49.28
2023-05-12T01:21:55.468Z,49.02
2023-05-12T01:25:00.463Z,48.92
2023-05-12T01:27:31.921Z,49.07
2023-05-12T01:30:04.290Z,48.83
2023-05-12T01:32:34.240Z,49.28
2023-05-12T01:35:05.338Z,49.54
2023-05-12T01:37:35.062Z,49.35
2023-05-12T01:40:03.915Z,49.23
2023-05-12T01:42:32.720Z,48.89
2023-05-12T01:45:02.966Z,49.04
2023-05-12T01:47:32.611Z,49.35
2023-05-12T01:50:01.572Z,49.40
2023-05-12T01:52:31.238Z,49.77
2023-05-12T01:55:00.024Z,49.54
2023-05-12T01:57:28.366Z,49.59
2023-05-12T01:59:56.722Z,49.79
2023-05-12T02:02:25.086Z,50.14
2023-05-12T02:04:53.467Z,50.19
2023-05-12T02:07:21.886Z,50.09
2023-05-12T02:09:50.213Z,50.03
2023-05-12T02:12:18.475Z,50.24
2023-05-12T02:14:46.884Z,50.39
2023-05-12T02:17:15.119Z,50.25
2023-05-12T02:19:43.770Z,50.43
2023-05-12T02:22:12.112Z,50.43
2023-05-12T02:24:40.467Z,50.53
2023-05-12T02:27:08.714Z,50.52
2023-05-12T02:29:38.097Z,50.68
2023-05-12T02:32:06.491Z,50.83
2023-05-12T02:34:35.029Z,51.03
2023-05-12T02:37:04.401Z,51.05
2023-05-12T02:39:32.736Z,51.16
2023-05-12T02:42:01.660Z,51.16
2023-05-12T02:44:30.132Z,51.32
2023-05-12T02:46:59.120Z,51.27
2023-05-12T02:49:29.242Z,51.32
2023-05-12T02:51:57.680Z,51.27
2023-05-12T02:54:26.681Z,51.46
2023-05-12T02:56:58.336Z,51.46
2023-05-12T02:59:27.650Z,51.38
2023-05-12T03:01:56.684Z,51.55
2023-05-12T03:04:25.039Z,51.53
2023-05-12T03:06:54.540Z,51.64
2023-05-12T03:09:24.160Z,51.90
2023-05-12T03:11:52.656Z,51.71
2023-05-12T03:14:20.949Z,51.96
2023-05-12T03:16:49.294Z,51.98
2023-05-12T03:19:17.614Z,51.91
2023-05-12T03:21:45.861Z,52.16
2023-05-12T03:24:14.224Z,52.14
2023-05-12T03:26:42.552Z,52.21
2023-05-12T03:29:10.802Z,52.30
2023-05-12T03:31:39.115Z,52.40
2023-05-12T03:34:07.413Z,52.29
2023-05-12T03:36:37.519Z,52.44
2023-05-12T03:39:05.847Z,52.43
2023-05-12T03:41:34.189Z,52.77
2023-05-12T03:44:02.509Z,52.75
2023-05-12T03:46:30.990Z,53.05
2023-05-12T03:49:03.558Z,53.07
2023-05-12T03:51:52.250Z,53.10
2023-05-12T03:54:21.047Z,53.27
2023-05-12T03:56:49.394Z,53.33
2023-05-12T03:59:17.644Z,53.31
2023-05-12T04:01:46.096Z,53.19
2023-05-12T04:04:15.946Z,52.91
2023-05-12T04:06:45.208Z,52.92
2023-05-12T04:09:13.495Z,52.90
2023-05-12T04:11:41.804Z,52.86
2023-05-12T04:14:10.093Z,52.69
2023-05-12T04:16:38.496Z,52.59
2023-05-12T04:19:06.850Z,52.36
2023-05-12T04:21:35.241Z,52.32
2023-05-12T04:24:03.799Z,52.33
2023-05-12T04:26:32.031Z,51.96
2023-05-12T04:29:00.283Z,51.68
2023-05-12T04:31:28.761Z,51.54
2023-05-12T04:33:57.124Z,51.42
2023-05-12T04:36:25.416Z,50.88
2023-05-12T04:38:58.355Z,50.88
2023-05-12T04:41:26.670Z,50.52
2023-05-12T04:46:27.452Z,49.75
2023-05-12T04:48:56.150Z,49.38
2023-05-12T04:51:24.573Z,49.15
2023-05-12T04:53:52.959Z,49.12
2023-05-12T04:56:22.476Z,48.90
2023-05-12T04:58:52.001Z,48.73
2023-05-12T05:01:20.358Z,48.35
2023-05-12T05:03:49.204Z,48.31
2023-05-12T05:06:18.045Z,48.01
2023-05-12T05:08:46.820Z,47.82
2023-05-12T05:11:15.562Z,47.65
2023-05-12T05:13:45.129Z,47.26
2023-05-12T05:16:14.953Z,47.14
2023-05-12T05:18:46.861Z,46.85
2023-05-12T05:21:16.546Z,46.60
2023-05-12T05:23:45.527Z,46.48
2023-05-12T05:26:16.414Z,46.05
2023-05-12T05:28:46.465Z,45.83
2023-05-12T05:31:17.913Z,45.59
2023-05-12T05:33:48.296Z,45.31
2023-05-12T05:36:18.295Z,45.22
2023-05-12T05:38:47.090Z,44.86
2023-05-12T05:41:15.482Z,44.65
2023-05-12T05:43:43.857Z,44.52
2023-05-12T05:46:14.050Z,44.19
2023-05-12T05:48:43.343Z,44.12
2023-05-12T05:51:12.027Z,43.95
2023-05-12T05:53:41.067Z,43.71
2023-05-12T05:56:10.970Z,43.26
2023-05-12T05:58:40.230Z,43.10
2023-05-12T06:01:08.774Z,43.04
2023-05-12T06:03:37.223Z,42.91
2023-05-12T06:06:05.829Z,42.71
2023-05-12T06:08:34.142Z,42.46
2023-05-12T06:11:02.464Z,42.38
2023-05-12T06:13:30.748Z,42.28
2023-05-12T06:15:59.072Z,42.03
2023-05-12T06:18:27.464Z,41.93
2023-05-12T06:20:55.866Z,41.96
2023-05-12T06:23:24.246Z,41.85
2023-05-12T06:25:52.436Z,41.81
2023-05-12T06:28:20.800Z,41.77
2023-05-12T06:30:49.074Z,41.39
2023-05-12T06:33:17.443Z,41.53
2023-05-12T06:35:45.919Z,41.40
2023-05-12T06:38:14.186Z,41.48
2023-05-12T06:53:06.862Z,39.58
2023-05-12T06:55:36.583Z,39.47
2023-05-12T06:58:06.091Z,39.79
2023-05-12T07:00:36.509Z,39.48
2023-05-12T07:03:04.719Z,39.39
2023-05-12T07:05:32.557Z,39.10
2023-05-12T07:08:00.705Z,39.64
2023-05-12T07:10:29.956Z,39.38
2023-05-12T07:12:58.447Z,39.45
2023-05-12T07:15:26.867Z,39.13
2023-05-12T07:17:55.877Z,39.56
2023-05-12T07:20:25.964Z,39.56
2023-05-12T07:22:54.335Z,39.49
2023-05-12T07:25:21.876Z,40.01
2023-05-12T07:27:50.030Z,40.14
2023-05-12T07:30:17.161Z,40.12
2023-05-12T07:32:44.262Z,40.04
2023-05-12T07:35:12.032Z,39.33
2023-05-12T07:37:39.158Z,38.26
2023-05-12T07:40:07.072Z,39.01
2023-05-12T07:42:34.309Z,39.55
2023-05-12T07:45:01.150Z,38.88
2023-05-12T07:47:28.225Z,39.20
2023-05-12T07:49:55.143Z,38.89
2023-05-12T07:52:22.097Z,38.74
2023-05-12T07:54:49.197Z,39.07
2023-05-12T07:57:16.392Z,38.85
2023-05-12T07:59:43.843Z,39.50
2023-05-12T08:02:10.808Z,39.51
2023-05-12T08:04:37.820Z,38.64
2023-05-12T08:07:04.669Z,38.28
2023-05-12T08:09:31.650Z,39.17
2023-05-12T08:11:58.527Z,39.46
2023-05-12T08:14:25.419Z,39.19
2023-05-12T08:16:52.522Z,39.30
2023-05-12T08:19:19.598Z,38.43
2023-05-12T08:21:46.437Z,37.97
2023-05-12T08:24:13.443Z,38.24
2023-05-12T08:26:40.306Z,37.90
2023-05-12T08:29:08.062Z,37.94
2023-05-12T08:31:35.444Z,37.96
2023-05-12T08:34:10.482Z,37.66
2023-05-12T08:36:39.374Z,36.91
2023-05-12T08:39:09.685Z,37.19
2023-05-12T08:41:47.416Z,38.22
2023-05-12T08:44:15.575Z,38.58
2023-05-12T08:46:43.279Z,38.54
2023-05-12T08:49:15.979Z,38.50
2023-05-12T08:51:48.060Z,38.36
2023-05-12T08:54:22.215Z,38.26
2023-05-12T08:59:23.554Z,37.43
2023-05-12T09:01:51.123Z,36.83
2023-05-12T09:04:18.287Z,36.61
2023-05-12T09:06:46.102Z,36.10
2023-05-12T09:09:15.236Z,36.04
2023-05-12T09:11:43.380Z,35.79
2023-05-12T09:14:25.594Z,36.17
2023-05-12T09:17:01.077Z,36.40
2023-05-12T09:19:28.898Z,36.28
2023-05-12T09:21:56.436Z,34.64
2023-05-12T09:24:34.664Z,35.46
2023-05-12T09:27:01.974Z,35.82
2023-05-12T09:29:31.658Z,35.83
2023-05-12T09:32:02.138Z,35.65
2023-05-12T09:34:40.231Z,34.58
2023-05-12T09:37:07.636Z,35.31
2023-05-12T09:39:38.585Z,35.74
2023-05-12T09:42:12.027Z,35.31
2023-05-12T09:44:40.400Z,35.28
2023-05-12T09:47:08.060Z,35.70
2023-05-12T09:49:35.312Z,35.63
2023-05-12T09:52:04.516Z,35.63
2023-05-12T09:54:33.130Z,35.24
2023-05-12T09:57:02.132Z,35.21
2023-05-12T09:59:34.651Z,35.73
2023-05-12T10:02:05.342Z,34.51
2023-05-12T10:04:47.174Z,35.15
2023-05-12T10:07:16.260Z,35.22
2023-05-12T10:09:44.798Z,35.25
2023-05-12T10:12:12.734Z,34.67
2023-05-12T10:14:40.498Z,34.76
2023-05-12T10:17:09.159Z,34.51
2023-05-12T10:19:38.257Z,33.35
2023-05-12T10:22:08.436Z,33.16
2023-05-12T10:24:37.503Z,33.50
2023-05-12T10:27:07.825Z,33.00
2023-05-12T10:29:37.128Z,31.32
2023-05-12T10:32:04.316Z,30.98
2023-05-12T10:34:36.653Z,32.14
2023-05-12T10:37:10.346Z,32.78
2023-05-12T10:39:46.312Z,32.87
2023-05-12T10:42:16.980Z,32.15
2023-05-12T10:44:50.608Z,31.50
2023-05-12T10:47:17.918Z,31.91
2023-05-12T10:49:44.859Z,32.63
2023-05-12T10:52:13.310Z,30.87
2023-05-12T10:54:43.858Z,29.66
2023-05-12T10:57:18.848Z,29.98
2023-05-12T10:59:57.021Z,30.90
2023-05-12T11:02:30.987Z,31.77
2023-05-12T11:05:00.454Z,32.41
2023-05-12T11:07:32.652Z,32.82
2023-05-12T11:10:02.693Z,33.01
2023-05-12T11:12:32.674Z,32.73
2023-05-12T11:15:02.780Z,31.76
2023-05-12T11:17:29.836Z,30.70
2023-05-12T11:19:57.784Z,31.87
2023-05-12T11:22:24.849Z,31.99
2023-05-12T11:24:52.706Z,32.27
2023-05-12T11:27:23.508Z,31.82
2023-05-12T11:29:59.120Z,31.53
2023-05-12T11:32:26.872Z,31.72
2023-05-12T11:34:53.918Z,32.01
2023-05-12T11:37:21.805Z,31.58
2023-05-12T11:39:48.769Z,31.70
2023-05-12T11:42:17.799Z,31.31
2023-05-12T11:44:48.647Z,30.41
2023-05-12T11:47:16.919Z,28.78
2023-05-12T11:49:48.927Z,28.84
2023-05-12T11:52:16.991Z,28.38
2023-05-12T11:54:57.501Z,28.39
2023-05-12T11:57:26.296Z,28.87
2023-05-12T12:00:01.920Z,29.64
2023-05-12T12:02:29.215Z,30.06
2023-05-12T12:04:57.251Z,29.01
2023-05-12T12:07:34.983Z,30.14
2023-05-12T12:10:16.360Z,29.85
2023-05-12T12:12:44.872Z,29.23
2023-05-12T12:15:12.649Z,29.69
2023-05-12T12:17:40.347Z,30.26
2023-05-12T12:20:08.541Z,28.95
2023-05-12T12:22:35.608Z,29.71
2023-05-12T12:25:03.517Z,29.31
2023-05-12T12:27:30.536Z,28.46
2023-05-12T12:29:57.546Z,29.34
2023-05-12T12:32:24.889Z,28.85
2023-05-12T12:34:52.984Z,29.42
2023-05-12T12:37:23.899Z,30.08
2023-05-12T12:39:54.266Z,30.17
2023-05-12T12:42:21.871Z,30.15
2023-05-12T12:44:49.839Z,29.63
2023-05-12T12:47:17.803Z,29.85
2023-05-12T12:49:44.829Z,29.72
2023-05-12T12:52:12.203Z,30.29
2023-05-12T12:54:39.050Z,29.64
2023-05-12T12:57:06.068Z,29.72
2023-05-12T12:59:33.234Z,30.60
2023-05-12T13:02:00.975Z,30.33
2023-05-12T13:04:27.995Z,30.28
2023-05-12T13:06:55.283Z,30.72
2023-05-12T13:09:22.561Z,30.79
2023-05-12T13:11:49.963Z,30.58
2023-05-12T13:14:16.876Z,29.90
2023-05-12T13:16:43.817Z,29.18
2023-05-12T13:19:11.022Z,30.35
2023-05-12T13:21:38.489Z,29.73
2023-05-12T13:24:05.466Z,29.56
2023-05-12T13:26:32.788Z,29.46
2023-05-12T13:28:59.603Z,29.35
2023-05-12T13:31:26.550Z,29.69
2023-05-12T13:33:53.607Z,29.35
2023-05-12T13:36:20.691Z,28.86
2023-05-12T13:38:47.645Z,29.44
2023-05-12T13:41:14.742Z,29.07
2023-05-12T13:43:41.700Z,29.21
2023-05-12T13:46:09.000Z,29.02
2023-05-12T13:48:35.987Z,28.92
2023-05-12T13:51:02.937Z,29.97
2023-05-12T13:53:29.750Z,29.40
2023-05-12T13:55:56.986Z,29.39
2023-05-12T13:58:26.835Z,29.42
2023-05-12T14:00:53.806Z,29.40
2023-05-12T14:03:21.234Z,29.38
2023-05-12T14:05:48.284Z,29.63
2023-05-12T14:08:15.274Z,29.26
2023-05-12T14:10:42.311Z,29.11
2023-05-12T14:13:09.162Z,28.99
2023-05-12T14:15:47.856Z,29.18
2023-05-12T14:18:16.689Z,29.04
2023-05-12T14:20:43.715Z,28.64
2023-05-12T14:23:10.633Z,27.14
2023-05-12T14:25:37.495Z,27.01
2023-05-12T14:28:05.019Z,27.94
2023-05-12T14:30:34.496Z,28.32
2023-05-12T14:33:02.021Z,28.06
2023-05-12T14:35:29.133Z,27.88
2023-05-12T14:37:56.278Z,27.97
2023-05-12T14:40:24.243Z,28.30
2023-05-12T14:42:52.012Z,28.04
2023-05-12T14:45:19.071Z,28.10
2023-05-12T14:47:46.801Z,28.07
2023-05-12T14:50:14.665Z,28.26
2023-05-12T14:52:41.844Z,28.30
2023-05-12T14:55:13.431Z,28.80
2023-05-12T14:57:41.288Z,28.53
2023-05-12T15:00:10.502Z,28.70
2023-05-12T15:02:38.899Z,28.24
2023-05-12T15:05:07.858Z,27.51
2023-05-12T15:07:35.907Z,27.34
2023-05-12T15:10:03.881Z,27.78
2023-05-12T15:12:31.251Z,27.17
2023-05-12T15:15:00.730Z,27.56
2023-05-12T15:17:28.153Z,27.79
2023-05-12T15:19:55.331Z,28.42
2023-05-12T15:22:22.681Z,28.31
2023-05-12T15:24:49.635Z,28.53
2023-05-12T15:27:16.609Z,28.43
2023-05-12T15:29:43.495Z,28.21
2023-05-12T15:32:10.740Z,28.53
2023-05-12T15:34:37.698Z,27.76
2023-05-12T15:37:04.638Z,27.83
2023-05-12T15:39:31.468Z,28.60
2023-05-12T15:41:59.593Z,28.87
2023-05-12T15:44:26.453Z,28.93
2023-05-12T15:46:53.461Z,28.99
2023-05-12T15:49:20.430Z,28.76
2023-05-12T15:51:47.357Z,28.27
2023-05-12T15:54:14.250Z,28.18
2023-05-12T15:56:41.244Z,28.11
2023-05-12T15:59:09.154Z,28.63
2023-05-12T16:01:36.154Z,29.10
2023-05-12T16:04:03.418Z,29.68
2023-05-12T16:06:30.366Z,29.27
2023-05-12T16:08:57.228Z,29.38
2023-05-12T16:11:24.171Z,29.32
2023-05-12T16:13:52.370Z,29.35
2023-05-12T16:16:19.519Z,29.32
2023-05-12T16:18:46.727Z,29.57
2023-05-12T16:21:13.863Z,29.41
2023-05-12T16:23:40.792Z,29.49
2023-05-12T16:26:07.798Z,29.32
2023-05-12T16:28:35.012Z,29.39
2023-05-12T16:31:03.150Z,29.99
2023-05-12T16:33:30.208Z,30.26
2023-05-12T16:35:57.282Z,30.16
2023-05-12T16:38:24.209Z,30.04
2023-05-12T16:40:51.515Z,30.21
2023-05-12T16:43:18.443Z,30.39
2023-05-12T16:45:45.537Z,30.25
2023-05-12T16:48:12.957Z,30.24
2023-05-12T16:50:39.835Z,29.86
2023-05-12T16:53:06.996Z,29.56
2023-05-12T16:55:34.068Z,29.38
2023-05-12T16:58:01.246Z,29.36
2023-05-12T17:00:28.348Z,29.81
2023-05-12T17:02:55.404Z,30.06
2023-05-12T17:05:22.851Z,30.03
2023-05-12T17:07:50.546Z,29.92
2023-05-12T17:10:17.537Z,30.37
2023-05-12T17:12:44.389Z,30.74
2023-05-12T17:15:11.414Z,30.98
2023-05-12T17:17:38.861Z,30.93
2023-05-12T17:20:07.048Z,31.02
2023-05-12T17:22:36.709Z,31.04
2023-05-12T17:25:04.063Z,31.25
2023-05-12T17:27:31.055Z,31.17
2023-05-12T17:29:59.289Z,31.20
2023-05-12T17:32:26.539Z,31.17
2023-05-12T17:34:53.624Z,31.19
2023-05-12T17:37:20.583Z,31.31
2023-05-12T17:39:49.919Z,31.52
2023-05-12T17:42:19.320Z,31.53
2023-05-12T17:44:46.197Z,31.46
2023-05-12T17:47:14.048Z,32.03
2023-05-12T17:49:41.985Z,32.42
2023-05-12T17:52:09.156Z,32.62
2023-05-12T17:54:36.006Z,32.59
2023-05-12T17:57:03.554Z,32.72
2023-05-12T17:59:30.862Z,33.08
2023-05-12T18:02:02.013Z,33.55
2023-05-12T18:04:29.224Z,34.06
2023-05-12T18:07:01.291Z,34.47
2023-05-12T18:09:32.702Z,34.67
2023-05-12T18:12:00.920Z,34.95
2023-05-12T18:14:30.742Z,35.32
2023-05-12T18:16:58.537Z,35.26
2023-05-12T18:19:28.633Z,35.23
2023-05-12T18:22:19.741Z,35.48
2023-05-12T18:24:47.673Z,35.59
2023-05-12T18:27:16.056Z,35.75
2023-05-12T18:38:08.975Z,36.10
2023-05-12T18:39:11.353Z,36.20
2023-05-12T18:46:30.568Z,36.39
2023-05-12T19:39:13.446Z,37.10
2023-05-12T19:41:53.376Z,37.17
2023-05-12T19:45:24.546Z,37.27
2023-05-12T19:47:56.531Z,37.31
2023-05-12T19:50:25.231Z,37.31
2023-05-12T19:53:44.839Z,37.28
2023-05-12T19:56:12.125Z,37.42
2023-05-12T19:58:40.421Z,37.60
2023-05-12T20:01:10.986Z,37.63
2023-05-12T20:03:40.387Z,37.61
2023-05-12T20:06:07.782Z,37.75
2023-05-12T20:08:38.148Z,37.82
2023-05-12T20:11:06.600Z,38.47
2023-05-12T20:13:33.791Z,39.08
2023-05-12T20:17:10.064Z,38.69
2023-05-12T20:19:37.600Z,38.66
2023-05-12T20:22:05.994Z,39.47
2023-05-12T20:25:21.894Z,39.83
2023-05-12T20:28:26.099Z,40.19
2023-05-12T20:31:03.129Z,40.27
2023-05-12T20:33:48.225Z,40.43
2023-05-12T20:36:35.301Z,40.95
2023-05-12T20:39:04.339Z,41.01
2023-05-12T20:41:32.807Z,40.78
2023-05-12T20:44:09.401Z,41.07
2023-05-12T20:47:10.890Z,41.57
2023-05-12T20:49:39.432Z,41.84
2023-05-12T20:52:07.415Z,42.11
2023-05-12T20:54:34.449Z,42.37
2023-05-12T20:57:03.081Z,42.52
2023-05-12T20:59:30.184Z,42.75
2023-05-12T21:02:05.309Z,42.91
2023-05-12T21:04:32.780Z,43.13
2023-05-12T21:07:09.451Z,43.38
2023-05-12T21:13:45.151Z,43.66
2023-05-12T21:16:12.314Z,43.96
2023-05-12T21:24:02.617Z,44.53
2023-05-12T21:26:30.822Z,44.76
2023-05-12T21:29:11.877Z,44.89
2023-05-12T21:31:49.318Z,45.00
2023-05-12T21:34:16.740Z,44.94
2023-05-12T21:51:35.241Z,45.80
2023-05-12T21:54:02.545Z,45.87
2023-05-12T21:56:29.577Z,45.92
2023-05-12T21:58:56.633Z,46.06
2023-05-12T22:01:23.748Z,46.20
2023-05-12T22:03:51.068Z,46.26
2023-05-12T22:06:18.163Z,46.45
2023-05-12T22:08:53.585Z,46.60
2023-05-12T22:11:22.868Z,46.56
2023-05-12T22:13:49.989Z,46.62
2023-05-12T22:16:18.617Z,46.76
2023-05-12T22:18:47.686Z,46.95
2023-05-12T22:21:14.788Z,46.97
2023-05-12T22:23:42.248Z,47.07
2023-05-12T22:26:12.070Z,47.10
2023-05-12T22:28:42.091Z,47.25
2023-05-12T22:31:11.892Z,47.24
2023-05-12T22:33:39.021Z,47.57
2023-05-12T22:36:07.026Z,47.23
2023-05-12T22:38:34.691Z,47.21
2023-05-12T22:41:02.319Z,47.46
2023-05-12T22:43:29.805Z,47.24
2023-05-12T22:45:57.351Z,47.47
2023-05-12T22:48:26.521Z,47.60
2023-05-12T22:50:55.090Z,47.73
2023-05-12T22:53:22.784Z,47.67
2023-05-12T22:55:54.072Z,47.34
2023-05-12T22:58:30.635Z,47.39
2023-05-12T23:00:58.528Z,47.73
2023-05-12T23:03:28.573Z,48.14
2023-05-12T23:05:56.515Z,47.93
2023-05-12T23:08:48.927Z,47.83
2023-05-12T23:11:16.712Z,48.02
2023-05-12T23:13:44.032Z,47.96
2023-05-12T23:16:16.868Z,48.00
2023-05-12T23:18:47.033Z,48.32
2023-05-12T23:21:14.163Z,48.49
2023-05-12T23:24:01.288Z,48.54
2023-05-12T23:26:35.901Z,48.57
2023-05-12T23:29:03.652Z,48.69
2023-05-12T23:31:31.197Z,49.06
2023-05-12T23:34:32.374Z,49.05
2023-05-12T23:37:31.665Z,49.04
2023-05-12T23:39:59.075Z,49.15
2023-05-12T23:42:26.473Z,49.34
2023-05-12T23:44:54.004Z,49.63
2023-05-12T23:48:21.075Z,49.50
2023-05-12T23:51:29.939Z,49.51
2023-05-12T23:54:44.792Z,49.59
2023-05-12T23:57:56.222Z,49.42
